createdAt,value
2022-08-24T00:01:40.539Z,102.78
2022-08-24T00:04:32.024Z,104.20
2022-08-24T00:07:27.388Z,105.40
2022-08-24T00:10:17.692Z,104.25
2022-08-24T00:13:06.301Z,103.53
2022-08-24T00:15:55.209Z,101.53
2022-08-24T00:18:48.271Z,103.40
2022-08-24T00:21:36.845Z,103.75
2022-08-24T00:24:25.678Z,102.72
2022-08-24T00:27:14.431Z,103.20
2022-08-24T00:30:04.313Z,102.05
2022-08-24T00:32:54.423Z,101.07
2022-08-24T00:35:44.595Z,100.72
2022-08-24T00:38:35.655Z,101.68
2022-08-24T00:41:24.998Z,100.53
2022-08-24T00:44:15.627Z,99.65
2022-08-24T00:47:12.635Z,100.10
2022-08-24T00:50:06.223Z,100.15
2022-08-24T00:53:01.167Z,103.35
2022-08-24T00:55:53.147Z,100.55
2022-08-24T00:58:47.331Z,99.88
2022-08-24T01:01:47.483Z,98.78
2022-08-24T01:04:42.386Z,97.03
2022-08-24T01:07:32.158Z,96.40
2022-08-24T01:10:25.951Z,95.80
2022-08-24T01:13:16.157Z,94.82
2022-08-24T01:16:08.502Z,93.97
2022-08-24T01:18:56.022Z,94.65
2022-08-24T01:21:54.527Z,92.65
2022-08-24T01:24:44.997Z,94.80
2022-08-24T01:27:36.517Z,92.13
2022-08-24T01:30:30.391Z,94.07
2022-08-24T01:33:24.888Z,94.50
2022-08-24T01:36:21.153Z,94.82
2022-08-24T01:39:20.763Z,96.68
2022-08-24T01:42:11.838Z,90.93
2022-08-24T01:45:04.079Z,91.40
2022-08-24T01:47:52.678Z,89.25
2022-08-24T01:50:41.127Z,90.80
2022-08-24T01:53:30.921Z,90.00
2022-08-24T01:56:19.377Z,89.35
2022-08-24T01:59:12.569Z,89.65
2022-08-24T02:02:07.829Z,89.30
2022-08-24T02:04:56.489Z,88.93
2022-08-24T02:07:46.013Z,88.35
2022-08-24T02:10:35.445Z,87.70
2022-08-24T02:13:25.017Z,87.40
2022-08-24T02:16:15.383Z,87.50
2022-08-24T02:19:03.959Z,87.53
2022-08-24T02:21:53.435Z,87.20
2022-08-24T02:24:42.008Z,85.18
2022-08-24T02:27:30.819Z,84.20
2022-08-24T02:30:19.839Z,85.78
2022-08-24T02:33:09.789Z,83.93
2022-08-24T02:35:58.383Z,84.00
2022-08-24T02:38:46.892Z,84.53
2022-08-24T02:41:39.537Z,85.53
2022-08-24T02:44:28.289Z,85.15
2022-08-24T02:47:17.707Z,87.45
2022-08-24T02:50:12.080Z,86.03
2022-08-24T02:53:00.529Z,84.57
2022-08-24T02:55:49.752Z,84.82
2022-08-24T02:58:39.299Z,84.28
2022-08-24T03:01:30.409Z,85.60
2022-08-24T03:04:20.887Z,84.88
2022-08-24T03:07:10.858Z,85.63
2022-08-24T03:09:59.410Z,85.78
2022-08-24T03:12:48.254Z,85.57
2022-08-24T03:15:36.698Z,86.47
2022-08-24T03:18:26.689Z,87.15
2022-08-24T03:21:15.704Z,88.00
2022-08-24T03:24:07.451Z,89.30
2022-08-24T03:26:56.326Z,90.15
2022-08-24T03:29:47.558Z,91.38
2022-08-24T03:32:38.906Z,91.38
2022-08-24T03:35:27.634Z,92.65
2022-08-24T03:38:16.140Z,93.18
2022-08-24T03:41:06.414Z,94.57
2022-08-24T03:43:56.504Z,95.20
2022-08-24T03:46:46.450Z,94.88
2022-08-24T03:49:35.013Z,95.47
2022-08-24T03:52:23.646Z,97.63
2022-08-24T03:55:14.670Z,96.35
2022-08-24T03:58:04.809Z,97.70
2022-08-24T04:00:54.802Z,97.68
2022-08-24T04:03:46.107Z,99.18
2022-08-24T04:06:35.788Z,98.28
2022-08-24T04:09:24.610Z,97.60
2022-08-24T04:12:13.050Z,96.93
2022-08-24T04:15:03.463Z,96.95
2022-08-24T04:17:52.500Z,98.63
2022-08-24T04:20:42.355Z,99.45
2022-08-24T04:23:47.074Z,100.53
2022-08-24T04:26:45.298Z,102.25
2022-08-24T04:29:36.109Z,102.60
2022-08-24T04:32:25.958Z,100.00
2022-08-24T04:35:16.311Z,100.75
2022-08-24T04:38:04.984Z,101.18
2022-08-24T04:40:54.086Z,101.18
2022-08-24T04:43:45.361Z,100.40
2022-08-24T04:46:35.479Z,100.05
2022-08-24T04:49:25.402Z,100.70
2022-08-24T04:52:13.794Z,98.57
2022-08-24T04:55:04.124Z,99.50
2022-08-24T04:57:56.487Z,98.93
2022-08-24T05:00:45.945Z,98.63
2022-08-24T05:03:35.351Z,97.30
2022-08-24T05:06:26.732Z,96.32
2022-08-24T05:09:15.145Z,94.18
2022-08-24T05:12:05.635Z,94.50
2022-08-24T05:14:59.113Z,95.18
2022-08-24T05:17:51.329Z,93.18
2022-08-24T05:20:41.715Z,93.75
2022-08-24T05:23:31.663Z,93.93
2022-08-24T05:26:24.043Z,92.05
2022-08-24T05:29:12.701Z,92.43
2022-08-24T05:32:06.393Z,91.88
2022-08-24T05:34:54.984Z,92.18
2022-08-24T05:37:44.549Z,92.65
2022-08-24T05:40:38.384Z,90.75
2022-08-24T05:43:26.979Z,88.93
2022-08-24T05:46:17.035Z,86.40
2022-08-24T05:49:08.729Z,81.35
2022-08-24T05:51:57.105Z,76.85
2022-08-24T05:54:47.035Z,74.78
2022-08-24T05:57:38.865Z,74.78
2022-08-24T06:00:45.776Z,74.68
2022-08-24T06:03:34.995Z,73.88
2022-08-24T06:06:25.408Z,69.00
2022-08-24T06:09:14.529Z,67.28
2022-08-24T06:12:03.563Z,64.20
2022-08-24T06:14:54.012Z,62.72
2022-08-24T06:17:44.926Z,60.72
2022-08-24T06:20:34.308Z,58.67
2022-08-24T06:23:23.090Z,56.20
2022-08-24T06:26:37.711Z,57.35
2022-08-24T06:29:26.668Z,55.10
2022-08-24T06:32:20.538Z,53.88
2022-08-24T06:35:11.465Z,50.80
2022-08-24T06:38:00.220Z,50.80
2022-08-24T06:40:48.754Z,51.40
2022-08-24T06:43:37.598Z,50.55
2022-08-24T06:46:33.117Z,50.53
2022-08-24T06:49:23.858Z,49.17
2022-08-24T06:52:12.353Z,49.72
2022-08-24T06:55:01.190Z,49.90
2022-08-24T06:57:52.484Z,47.78
2022-08-24T07:00:42.071Z,47.42
2022-08-24T07:03:30.693Z,47.28
2022-08-24T07:06:36.911Z,47.55
2022-08-24T07:09:25.889Z,47.10
2022-08-24T07:12:14.352Z,46.55
2022-08-24T07:15:03.195Z,44.50
2022-08-24T07:17:57.832Z,43.65
2022-08-24T07:20:46.907Z,43.05
2022-08-24T07:23:58.391Z,42.05
2022-08-24T07:26:47.883Z,40.90
2022-08-24T07:29:50.471Z,39.53
2022-08-24T07:32:45.237Z,38.63
2022-08-24T07:35:34.837Z,37.38
2022-08-24T07:38:23.681Z,36.47
2022-08-24T07:41:38.294Z,36.53
2022-08-24T07:44:23.551Z,37.05
2022-08-24T07:47:37.034Z,32.35
2022-08-24T07:50:23.335Z,29.58
2022-08-24T07:53:15.020Z,28.20
2022-08-24T07:56:07.806Z,27.27
2022-08-24T07:58:59.403Z,25.90
2022-08-24T08:01:48.148Z,27.58
2022-08-24T08:04:36.604Z,27.25
2022-08-24T08:07:25.611Z,25.23
2022-08-24T08:10:14.452Z,24.95
2022-08-24T08:13:03.679Z,24.10
2022-08-24T08:15:59.334Z,24.23
2022-08-24T08:18:56.398Z,25.25
2022-08-24T08:22:12.737Z,24.75
2022-08-24T08:25:34.956Z,23.80
2022-08-24T08:28:35.471Z,23.35
2022-08-24T08:31:26.026Z,23.75
2022-08-24T08:34:16.388Z,24.17
2022-08-24T08:37:05.585Z,23.92
2022-08-24T08:39:54.864Z,23.88
2022-08-24T08:42:58.160Z,22.90
2022-08-24T08:46:14.245Z,21.50
2022-08-24T08:49:51.271Z,21.38
2022-08-24T08:53:17.665Z,21.15
2022-08-24T08:56:21.731Z,20.25
2022-08-24T08:59:22.185Z,20.02
2022-08-24T09:02:35.610Z,19.58
2022-08-24T09:05:59.893Z,20.20
2022-08-24T09:09:08.361Z,19.08
2022-08-24T09:12:07.857Z,18.92
2022-08-24T09:15:16.838Z,19.05
2022-08-24T09:18:17.013Z,19.05
2022-08-24T09:21:31.385Z,19.08
2022-08-24T09:24:43.285Z,18.73
2022-08-24T09:28:02.175Z,18.70
2022-08-24T09:31:06.393Z,19.25
2022-08-24T09:34:10.164Z,18.45
2022-08-24T09:37:12.784Z,18.25
2022-08-24T09:40:17.196Z,19.17
2022-08-24T09:43:36.557Z,18.63
2022-08-24T09:47:08.840Z,16.77
2022-08-24T09:50:36.338Z,17.35
2022-08-24T09:54:18.263Z,17.25
2022-08-24T09:57:50.415Z,16.88
2022-08-24T10:00:47.724Z,17.75
2022-08-24T10:03:51.935Z,17.10
2022-08-24T10:06:55.688Z,18.17
2022-08-24T10:10:04.610Z,18.88
2022-08-24T10:13:04.738Z,19.83
2022-08-24T10:16:07.403Z,17.98
2022-08-24T10:19:07.901Z,17.25
2022-08-24T10:22:05.610Z,18.27
2022-08-24T10:25:11.458Z,17.08
2022-08-24T10:28:16.882Z,15.50
2022-08-24T10:31:12.178Z,16.55
2022-08-24T10:34:29.001Z,15.57
2022-08-24T10:37:42.302Z,15.38
2022-08-24T10:40:39.899Z,15.13
2022-08-24T10:43:49.036Z,14.23
2022-08-24T10:46:49.321Z,15.80
2022-08-24T10:50:13.739Z,13.45
2022-08-24T10:53:15.503Z,13.88
2022-08-24T10:56:12.011Z,13.07
2022-08-24T10:59:16.395Z,14.25
2022-08-24T11:02:12.725Z,13.40
2022-08-24T11:05:08.368Z,12.98
2022-08-24T11:08:03.413Z,13.35
2022-08-24T11:11:14.483Z,13.45
2022-08-24T11:14:10.330Z,12.90
2022-08-24T11:17:17.803Z,12.98
2022-08-24T11:20:29.876Z,13.95
2022-08-24T11:23:29.596Z,12.70
2022-08-24T11:26:30.420Z,12.60
2022-08-24T11:29:23.104Z,13.85
2022-08-24T11:32:27.701Z,14.15
2022-08-24T11:35:27.574Z,12.98
2022-08-24T11:38:27.151Z,12.23
2022-08-24T11:41:26.992Z,12.70
2022-08-24T11:44:36.400Z,12.55
2022-08-24T11:47:51.928Z,12.75
2022-08-24T11:50:50.404Z,12.05
2022-08-24T11:53:46.766Z,12.27
2022-08-24T11:56:44.555Z,12.65
2022-08-24T11:59:43.286Z,11.45
2022-08-24T12:02:37.598Z,10.55
2022-08-24T12:05:32.055Z,11.15
2022-08-24T12:08:28.731Z,12.98
2022-08-24T12:11:25.273Z,11.93
2022-08-24T12:14:23.114Z,10.15
2022-08-24T12:17:20.532Z,11.27
2022-08-24T12:20:23.252Z,11.20
2022-08-24T12:23:17.038Z,10.80
2022-08-24T12:26:10.911Z,11.15
2022-08-24T12:29:03.051Z,10.98
2022-08-24T12:31:56.342Z,10.88
2022-08-24T12:34:59.106Z,10.07
2022-08-24T12:37:52.303Z,12.00
2022-08-24T12:40:46.242Z,10.00
2022-08-24T12:43:49.553Z,10.95
2022-08-24T12:46:45.222Z,11.48
2022-08-24T12:49:50.382Z,10.82
2022-08-24T12:53:15.265Z,10.73
2022-08-24T12:56:47.224Z,9.95
2022-08-24T12:59:43.800Z,11.10
2022-08-24T13:02:47.638Z,11.50
2022-08-24T13:05:45.141Z,11.00
2022-08-24T13:08:38.406Z,11.65
2022-08-24T13:11:32.415Z,9.73
2022-08-24T13:14:24.264Z,10.60
2022-08-24T13:17:14.682Z,10.98
2022-08-24T13:20:20.193Z,9.93
2022-08-24T13:23:18.857Z,10.45
2022-08-24T13:26:26.711Z,11.20
2022-08-24T13:29:17.607Z,10.63
2022-08-24T13:32:08.355Z,13.23
2022-08-24T13:34:59.198Z,11.38
2022-08-24T13:38:27.087Z,11.10
2022-08-24T13:41:30.355Z,10.50
2022-08-24T13:44:26.765Z,11.05
2022-08-24T13:47:20.967Z,11.10
2022-08-24T13:50:15.589Z,11.90
2022-08-24T13:53:31.120Z,11.82
2022-08-24T13:56:32.758Z,12.70
2022-08-24T13:59:53.587Z,12.88
2022-08-24T14:02:59.840Z,12.25
2022-08-24T14:05:52.121Z,12.75
2022-08-24T14:08:51.548Z,10.73
2022-08-24T14:11:56.024Z,10.70
2022-08-24T14:15:03.693Z,11.48
2022-08-24T14:18:03.545Z,12.00
2022-08-24T14:21:09.867Z,11.43
2022-08-24T14:24:04.109Z,11.15
2022-08-24T14:27:08.281Z,11.77
2022-08-24T14:30:35.598Z,12.13
2022-08-24T14:33:30.739Z,12.60
2022-08-24T14:36:22.099Z,12.90
2022-08-24T14:39:20.947Z,13.07
2022-08-24T14:42:18.233Z,12.80
2022-08-24T14:45:10.454Z,13.38
2022-08-24T14:48:05.967Z,13.50
2022-08-24T14:51:02.131Z,15.20
2022-08-24T14:54:00.651Z,14.35
2022-08-24T14:57:00.431Z,13.93
2022-08-24T15:00:01.740Z,14.45
2022-08-24T15:03:25.973Z,14.95
2022-08-24T15:06:27.826Z,16.00
2022-08-24T15:09:24.120Z,15.63
2022-08-24T15:12:21.336Z,15.02
2022-08-24T15:15:19.124Z,15.98
2022-08-24T15:18:34.863Z,16.52
2022-08-24T15:21:34.635Z,15.80
2022-08-24T15:24:36.948Z,16.15
2022-08-24T15:27:34.683Z,15.45
2022-08-24T15:30:28.362Z,16.67
2022-08-24T15:33:19.629Z,16.38
2022-08-24T15:36:12.059Z,16.48
2022-08-24T15:39:01.727Z,16.17
2022-08-24T15:41:50.593Z,15.32
2022-08-24T15:44:41.228Z,16.38
2022-08-24T15:47:33.240Z,14.43
2022-08-24T15:50:25.287Z,7.93
2022-08-24T15:53:30.423Z,6.93
2022-08-24T15:56:36.109Z,5.72
2022-08-24T15:59:29.748Z,5.85
2022-08-24T16:02:28.647Z,5.65
2022-08-24T16:05:38.350Z,4.80
2022-08-24T16:08:26.768Z,5.53
2022-08-24T16:11:27.577Z,5.97
2022-08-24T16:14:26.152Z,5.97
2022-08-24T16:17:27.744Z,6.15
2022-08-24T16:20:32.780Z,6.07
2022-08-24T16:23:28.378Z,6.00
2022-08-24T16:26:23.939Z,6.13
2022-08-24T16:29:45.219Z,6.60
2022-08-24T16:32:49.816Z,6.68
2022-08-24T16:35:40.959Z,6.55
2022-08-24T16:38:31.347Z,7.93
2022-08-24T16:41:22.385Z,7.60
2022-08-24T16:44:11.779Z,9.70
2022-08-24T16:47:00.178Z,7.80
2022-08-24T16:49:49.212Z,8.35
2022-08-24T16:52:39.006Z,9.63
2022-08-24T16:55:28.638Z,9.00
2022-08-24T16:58:17.743Z,10.88
2022-08-24T17:01:06.403Z,11.57
2022-08-24T17:03:55.429Z,10.45
2022-08-24T17:06:44.484Z,10.07
2022-08-24T17:09:36.649Z,9.85
2022-08-24T17:12:27.097Z,10.43
2022-08-24T17:15:16.342Z,8.95
2022-08-24T17:18:07.551Z,9.85
2022-08-24T17:20:55.935Z,11.05
2022-08-24T17:23:44.631Z,11.20
2022-08-24T17:26:34.818Z,12.90
2022-08-24T17:29:24.116Z,13.40
2022-08-24T17:32:13.140Z,11.88
2022-08-24T17:35:03.259Z,11.90
2022-08-24T17:37:53.730Z,12.38
2022-08-24T17:40:42.042Z,17.65
2022-08-24T17:43:32.152Z,17.98
2022-08-24T17:46:22.092Z,23.67
2022-08-24T17:49:12.352Z,13.10
2022-08-24T17:52:00.806Z,13.05
2022-08-24T17:54:49.300Z,13.80
2022-08-24T17:57:38.785Z,17.40
2022-08-24T18:00:28.845Z,16.02
2022-08-24T18:03:17.417Z,17.42
2022-08-24T18:06:06.138Z,21.38
2022-08-24T18:08:56.803Z,20.02
2022-08-24T18:11:45.293Z,19.45
2022-08-24T18:14:34.698Z,19.55
2022-08-24T18:17:31.465Z,19.95
2022-08-24T18:20:24.180Z,21.08
2022-08-24T18:23:13.066Z,21.42
2022-08-24T18:26:06.094Z,22.05
2022-08-24T18:28:55.662Z,23.33
2022-08-24T18:31:44.751Z,23.45
2022-08-24T18:34:35.119Z,23.27
2022-08-24T18:37:24.330Z,23.30
2022-08-24T18:40:20.392Z,23.15
2022-08-24T18:43:10.294Z,24.17
2022-08-24T18:45:59.077Z,24.10
2022-08-24T18:48:47.548Z,24.08
2022-08-24T18:51:38.395Z,23.20
2022-08-24T18:54:31.659Z,23.48
2022-08-24T18:57:20.664Z,24.58
2022-08-24T19:00:11.965Z,25.08
2022-08-24T19:03:05.685Z,24.63
2022-08-24T19:05:54.412Z,24.80
2022-08-24T19:08:44.229Z,25.05
2022-08-24T19:11:32.590Z,25.83
2022-08-24T19:14:21.096Z,25.08
2022-08-24T19:17:09.583Z,25.15
2022-08-24T19:19:58.413Z,23.88
2022-08-24T19:22:47.746Z,24.65
2022-08-24T19:25:38.915Z,25.02
2022-08-24T19:28:27.907Z,25.95
2022-08-24T19:31:16.663Z,26.27
2022-08-24T19:34:05.439Z,26.35
2022-08-24T19:36:55.018Z,26.50
2022-08-24T19:39:43.612Z,27.20
2022-08-24T19:42:36.779Z,26.65
2022-08-24T19:45:44.980Z,27.15
2022-08-24T19:48:34.873Z,26.40
2022-08-24T19:51:23.401Z,27.23
2022-08-24T19:54:12.093Z,26.65
2022-08-24T19:57:02.012Z,26.88
2022-08-24T19:59:52.597Z,26.50
2022-08-24T20:02:41.083Z,29.77
2022-08-24T20:05:30.117Z,28.48
2022-08-24T20:08:20.089Z,28.13
2022-08-24T20:11:09.402Z,27.35
2022-08-24T20:13:57.761Z,27.38
2022-08-24T20:16:47.624Z,27.60
2022-08-24T20:19:40.173Z,27.75
2022-08-24T20:22:29.326Z,28.63
2022-08-24T20:25:18.725Z,28.15
2022-08-24T20:31:19.038Z,27.95
2022-08-24T20:34:08.859Z,27.80
2022-08-24T20:36:58.674Z,28.08
2022-08-24T20:39:47.080Z,29.85
2022-08-24T20:42:35.591Z,29.48
2022-08-24T20:45:23.960Z,30.02
2022-08-24T20:48:13.827Z,31.30
2022-08-24T20:51:03.657Z,30.35
2022-08-24T20:53:52.092Z,31.05
2022-08-24T20:56:40.523Z,32.50
2022-08-24T20:59:29.042Z,32.15
2022-08-24T21:02:17.420Z,32.53
2022-08-24T21:05:06.742Z,33.20
2022-08-24T21:07:58.042Z,33.90
2022-08-24T21:10:47.738Z,35.22
2022-08-24T21:13:36.192Z,34.67
2022-08-24T21:16:24.886Z,34.55
2022-08-24T21:19:17.845Z,34.20
2022-08-24T21:22:06.402Z,35.00
2022-08-24T21:24:56.220Z,36.67
2022-08-24T21:27:47.596Z,36.45
2022-08-24T21:30:36.032Z,36.83
2022-08-24T21:33:42.061Z,38.08
2022-08-24T21:36:31.926Z,38.95
2022-08-24T21:39:20.486Z,40.03
2022-08-24T21:42:10.773Z,40.72
2022-08-24T21:44:59.187Z,40.10
2022-08-24T21:47:47.682Z,40.30
2022-08-24T21:50:36.223Z,39.80
2022-08-24T21:53:28.439Z,40.63
2022-08-24T21:56:23.612Z,46.78
2022-08-24T21:59:13.821Z,42.97
2022-08-24T22:02:04.174Z,41.28
2022-08-24T22:04:56.791Z,42.63
2022-08-24T22:07:45.808Z,41.60
2022-08-24T22:10:34.162Z,42.53
2022-08-24T22:13:22.597Z,43.15
2022-08-24T22:16:13.422Z,43.90
2022-08-24T22:19:02.215Z,44.60
2022-08-24T22:21:50.815Z,44.17
2022-08-24T22:24:39.166Z,45.15
2022-08-24T22:27:27.654Z,44.35
2022-08-24T22:30:18.414Z,44.97
2022-08-24T22:33:09.357Z,45.72
2022-08-24T22:35:57.849Z,45.55
2022-08-24T22:38:46.455Z,45.60
2022-08-24T22:41:35.355Z,46.08
2022-08-24T22:44:24.283Z,47.38
2022-08-24T22:47:13.401Z,47.83
2022-08-24T22:50:05.648Z,48.10
2022-08-24T22:52:54.559Z,47.10
2022-08-24T22:55:43.067Z,48.03
2022-08-24T22:58:31.571Z,47.67
2022-08-24T23:01:21.864Z,47.47
2022-08-24T23:04:13.117Z,48.50
2022-08-24T23:07:03.890Z,49.10
2022-08-24T23:09:52.339Z,49.58
2022-08-24T23:12:40.841Z,50.08
2022-08-24T23:15:29.514Z,49.92
2022-08-24T23:18:31.990Z,51.45
2022-08-24T23:21:21.039Z,51.88
2022-08-24T23:24:13.213Z,51.60
2022-08-24T23:27:02.681Z,52.13
2022-08-24T23:29:51.328Z,53.33
2022-08-24T23:32:40.827Z,53.67
2022-08-24T23:35:29.621Z,53.63
2022-08-24T23:38:18.323Z,53.60
2022-08-24T23:41:12.685Z,53.80
2022-08-24T23:44:02.614Z,52.85
2022-08-24T23:46:51.447Z,52.80
2022-08-24T23:49:41.801Z,53.42
2022-08-24T23:52:30.747Z,53.95
2022-08-24T23:55:21.082Z,54.97
2022-08-24T23:58:11.473Z,55.13
